Skip Navigation Links Skip Navigation Links

Current Weather

Windsor Apt, Windsor, Ont.

For information only: do not use for flight planning or navigation.
Latest weather
Observation time Friday, May 29, 2020 6:13 PM EDT
Local time Friday, May 29, 2020 7:09 PM EDT
Flight conditions Visual Meteorological Conditions
Winds
Wind direction West (280°)
Winds variable from 270° to 360°
Wind speed 16 mph
Visibility 9 mi.
Sky condition
Ceiling unlimited
Cloud layer few clouds 4,400 ft.
Temperature 70°F
Dewpoint 52°F
Altimeter 29.92 in.Hg
Derived measurements
Relative humidity 53%
Density altitude 1511 ft.
Sea-level pressure 29.92 in.Hg
Remarks
Special weather observation.
Fully automated report.
METAR SPECI CYQG 292213Z AUTO 28014KT 270V360 9SM FEW044 21/11 A2992 RMK SLP132 DENSITY ALT 1400FT

Settings

Location code

InnerDrive.Weather 4.0.6770.0 Release CLR 4.0.30319.42000
Copyright ©2018 Inner Drive Technology. All rights reserved. Portions Copyright ©1986-2018 David Braverman.

Find weather

Site navigation


Skip Navigation Links

Place info

Page info

PayPal - The safer, easier way to pay online!

Return home.

Copyright ©2020 Inner Drive Technology. Purveyors of fine, hand-crafted computer software. Page printed 2020-05-29T23:09:54 UTC.